sensor_id;sensor_type;location;lat;lon;timestamp;P1;durP1;ratioP1;P2;durP2;ratioP2
23119;SDS011;11729;50.836;4.330;2023-04-07T00:00:06;4.43;;;4.22;;
23119;SDS011;11729;50.836;4.330;2023-04-07T00:02:32;4.50;;;4.30;;
23119;SDS011;11729;50.836;4.330;2023-04-07T00:04:58;4.50;;;4.30;;
23119;SDS011;11729;50.836;4.330;2023-04-07T00:07:23;4.30;;;4.10;;
23119;SDS011;11729;50.836;4.330;2023-04-07T00:09:50;4.50;;;4.30;;
23119;SDS011;11729;50.836;4.330;2023-04-07T00:12:18;4.40;;;4.20;;
23119;SDS011;11729;50.836;4.330;2023-04-07T00:14:43;4.60;;;4.40;;
23119;SDS011;11729;50.836;4.330;2023-04-07T00:17:09;4.40;;;4.20;;
23119;SDS011;11729;50.836;4.330;2023-04-07T00:19:34;4.40;;;4.20;;
23119;SDS011;11729;50.836;4.330;2023-04-07T00:22:00;4.78;;;4.53;;
23119;SDS011;11729;50.836;4.330;2023-04-07T00:24:25;4.47;;;4.28;;
23119;SDS011;11729;50.836;4.330;2023-04-07T00:26:51;4.43;;;4.22;;
23119;SDS011;11729;50.836;4.330;2023-04-07T00:29:17;4.70;;;4.50;;
23119;SDS011;11729;50.836;4.330;2023-04-07T00:31:42;4.60;;;4.40;;
23119;SDS011;11729;50.836;4.330;2023-04-07T00:34:08;4.50;;;4.30;;
23119;SDS011;11729;50.836;4.330;2023-04-07T00:36:33;4.50;;;4.30;;
23119;SDS011;11729;50.836;4.330;2023-04-07T00:38:59;4.78;;;4.57;;
23119;SDS011;11729;50.836;4.330;2023-04-07T00:41:24;4.93;;;4.65;;
23119;SDS011;11729;50.836;4.330;2023-04-07T00:43:50;5.00;;;4.70;;
23119;SDS011;11729;50.836;4.330;2023-04-07T00:46:16;4.38;;;4.18;;
23119;SDS011;11729;50.836;4.330;2023-04-07T00:48:43;4.50;;;4.30;;
23119;SDS011;11729;50.836;4.330;2023-04-07T00:51:09;4.40;;;4.20;;
23119;SDS011;11729;50.836;4.330;2023-04-07T00:53:35;4.97;;;4.70;;
23119;SDS011;11729;50.836;4.330;2023-04-07T00:56:01;4.50;;;4.30;;
23119;SDS011;11729;50.836;4.330;2023-04-07T00:58:26;4.50;;;4.30;;
23119;SDS011;11729;50.836;4.330;2023-04-07T01:00:58;4.40;;;4.20;;
23119;SDS011;11729;50.836;4.330;2023-04-07T01:03:33;4.53;;;4.32;;
23119;SDS011;11729;50.836;4.330;2023-04-07T01:06:12;4.57;;;4.38;;
23119;SDS011;11729;50.836;4.330;2023-04-07T01:13:49;4.53;;;4.32;;
23119;SDS011;11729;50.836;4.330;2023-04-07T01:16:31;4.60;;;4.40;;
23119;SDS011;11729;50.836;4.330;2023-04-07T01:19:07;4.38;;;4.18;;
23119;SDS011;11729;50.836;4.330;2023-04-07T01:21:41;4.60;;;4.40;;
23119;SDS011;11729;50.836;4.330;2023-04-07T01:26:35;4.82;;;4.63;;
23119;SDS011;11729;50.836;4.330;2023-04-07T01:32:11;4.82;;;4.63;;
23119;SDS011;11729;50.836;4.330;2023-04-07T01:34:38;6.15;;;5.85;;
23119;SDS011;11729;50.836;4.330;2023-04-07T01:37:05;5.05;;;4.85;;
23119;SDS011;11729;50.836;4.330;2023-04-07T01:39:32;4.50;;;4.30;;
23119;SDS011;11729;50.836;4.330;2023-04-07T01:41:59;4.70;;;4.50;;
23119;SDS011;11729;50.836;4.330;2023-04-07T01:44:28;4.60;;;4.40;;
23119;SDS011;11729;50.836;4.330;2023-04-07T01:46:56;4.85;;;4.65;;
23119;SDS011;11729;50.836;4.330;2023-04-07T01:49:23;4.60;;;4.40;;
23119;SDS011;11729;50.836;4.330;2023-04-07T01:51:51;4.40;;;4.20;;
23119;SDS011;11729;50.836;4.330;2023-04-07T01:54:20;4.50;;;4.30;;
23119;SDS011;11729;50.836;4.330;2023-04-07T01:56:47;4.40;;;4.20;;
23119;SDS011;11729;50.836;4.330;2023-04-07T01:59:12;4.63;;;4.43;;
23119;SDS011;11729;50.836;4.330;2023-04-07T02:01:39;4.80;;;4.60;;
23119;SDS011;11729;50.836;4.330;2023-04-07T02:04:08;5.22;;;4.80;;
23119;SDS011;11729;50.836;4.330;2023-04-07T02:06:49;4.60;;;4.40;;
23119;SDS011;11729;50.836;4.330;2023-04-07T02:09:19;4.60;;;4.40;;
23119;SDS011;11729;50.836;4.330;2023-04-07T02:11:46;4.63;;;4.43;;
23119;SDS011;11729;50.836;4.330;2023-04-07T02:14:13;4.50;;;4.30;;
23119;SDS011;11729;50.836;4.330;2023-04-07T02:16:42;4.70;;;4.50;;
23119;SDS011;11729;50.836;4.330;2023-04-07T02:19:10;4.65;;;4.45;;
23119;SDS011;11729;50.836;4.330;2023-04-07T02:21:37;4.55;;;4.35;;
23119;SDS011;11729;50.836;4.330;2023-04-07T02:26:34;4.40;;;4.20;;
23119;SDS011;11729;50.836;4.330;2023-04-07T02:29:00;4.50;;;4.30;;
23119;SDS011;11729;50.836;4.330;2023-04-07T02:31:26;4.50;;;4.30;;
23119;SDS011;11729;50.836;4.330;2023-04-07T02:33:52;4.60;;;4.40;;
23119;SDS011;11729;50.836;4.330;2023-04-07T02:36:17;4.50;;;4.30;;
23119;SDS011;11729;50.836;4.330;2023-04-07T02:38:43;4.40;;;4.20;;
23119;SDS011;11729;50.836;4.330;2023-04-07T02:41:08;4.70;;;4.50;;
23119;SDS011;11729;50.836;4.330;2023-04-07T02:43:34;4.70;;;4.50;;
23119;SDS011;11729;50.836;4.330;2023-04-07T02:46:01;5.20;;;5.00;;
23119;SDS011;11729;50.836;4.330;2023-04-07T02:48:26;4.60;;;4.40;;
23119;SDS011;11729;50.836;4.330;2023-04-07T02:50:52;4.82;;;4.63;;
23119;SDS011;11729;50.836;4.330;2023-04-07T02:53:17;4.50;;;4.30;;
23119;SDS011;11729;50.836;4.330;2023-04-07T02:55:43;4.88;;;4.65;;
23119;SDS011;11729;50.836;4.330;2023-04-07T02:58:09;4.55;;;4.35;;
23119;SDS011;11729;50.836;4.330;2023-04-07T03:00:35;4.60;;;4.40;;
23119;SDS011;11729;50.836;4.330;2023-04-07T03:03:01;4.60;;;4.40;;
23119;SDS011;11729;50.836;4.330;2023-04-07T03:05:26;4.43;;;4.22;;
23119;SDS011;11729;50.836;4.330;2023-04-07T03:07:53;4.78;;;4.57;;
23119;SDS011;11729;50.836;4.330;2023-04-07T03:10:18;4.47;;;4.28;;
23119;SDS011;11729;50.836;4.330;2023-04-07T03:12:44;4.40;;;4.20;;
23119;SDS011;11729;50.836;4.330;2023-04-07T03:15:09;4.90;;;4.70;;
23119;SDS011;11729;50.836;4.330;2023-04-07T03:17:35;4.50;;;4.30;;
23119;SDS011;11729;50.836;4.330;2023-04-07T03:20:01;4.50;;;4.30;;
23119;SDS011;11729;50.836;4.330;2023-04-07T03:22:26;4.30;;;4.10;;
23119;SDS011;11729;50.836;4.330;2023-04-07T03:24:52;4.78;;;4.57;;
23119;SDS011;11729;50.836;4.330;2023-04-07T03:27:17;4.38;;;4.18;;
23119;SDS011;11729;50.836;4.330;2023-04-07T03:29:44;4.70;;;4.50;;
23119;SDS011;11729;50.836;4.330;2023-04-07T03:32:10;4.30;;;4.10;;
23119;SDS011;11729;50.836;4.330;2023-04-07T03:34:36;4.57;;;4.38;;
23119;SDS011;11729;50.836;4.330;2023-04-07T03:37:01;4.38;;;4.18;;
23119;SDS011;11729;50.836;4.330;2023-04-07T03:39:27;4.40;;;4.20;;
23119;SDS011;11729;50.836;4.330;2023-04-07T03:41:53;4.43;;;4.22;;
23119;SDS011;11729;50.836;4.330;2023-04-07T03:44:19;4.95;;;4.70;;
23119;SDS011;11729;50.836;4.330;2023-04-07T03:46:45;4.40;;;4.20;;
23119;SDS011;11729;50.836;4.330;2023-04-07T03:49:12;4.20;;;4.00;;
23119;SDS011;11729;50.836;4.330;2023-04-07T03:51:38;4.82;;;4.63;;
23119;SDS011;11729;50.836;4.330;2023-04-07T03:54:04;4.50;;;4.30;;
23119;SDS011;11729;50.836;4.330;2023-04-07T03:56:30;4.40;;;4.20;;
23119;SDS011;11729;50.836;4.330;2023-04-07T03:58:57;4.97;;;4.78;;
23119;SDS011;11729;50.836;4.330;2023-04-07T04:01:22;6.05;;;5.65;;
23119;SDS011;11729;50.836;4.330;2023-04-07T04:03:48;4.65;;;4.45;;
23119;SDS011;11729;50.836;4.330;2023-04-07T04:06:14;4.50;;;4.30;;
23119;SDS011;11729;50.836;4.330;2023-04-07T04:08:40;5.32;;;5.03;;
23119;SDS011;11729;50.836;4.330;2023-04-07T04:11:05;4.60;;;4.40;;
23119;SDS011;11729;50.836;4.330;2023-04-07T04:13:31;4.40;;;4.20;;
23119;SDS011;11729;50.836;4.330;2023-04-07T04:15:56;5.35;;;5.15;;
23119;SDS011;11729;50.836;4.330;2023-04-07T04:18:22;4.57;;;4.38;;
23119;SDS011;11729;50.836;4.330;2023-04-07T04:20:48;5.22;;;5.03;;
23119;SDS011;11729;50.836;4.330;2023-04-07T04:23:14;5.53;;;5.18;;
23119;SDS011;11729;50.836;4.330;2023-04-07T04:25:40;7.25;;;6.72;;
23119;SDS011;11729;50.836;4.330;2023-04-07T04:28:05;4.50;;;4.30;;
23119;SDS011;11729;50.836;4.330;2023-04-07T04:30:31;5.88;;;5.57;;
23119;SDS011;11729;50.836;4.330;2023-04-07T04:32:57;4.40;;;4.20;;
23119;SDS011;11729;50.836;4.330;2023-04-07T04:35:22;4.82;;;4.63;;
23119;SDS011;11729;50.836;4.330;2023-04-07T04:37:48;6.22;;;5.93;;
23119;SDS011;11729;50.836;4.330;2023-04-07T04:40:16;4.70;;;4.50;;
23119;SDS011;11729;50.836;4.330;2023-04-07T04:42:45;4.40;;;4.20;;
23119;SDS011;11729;50.836;4.330;2023-04-07T04:45:13;4.55;;;4.35;;
23119;SDS011;11729;50.836;4.330;2023-04-07T04:47:39;4.50;;;4.30;;
23119;SDS011;11729;50.836;4.330;2023-04-07T04:50:05;4.40;;;4.20;;
23119;SDS011;11729;50.836;4.330;2023-04-07T04:52:31;5.43;;;4.88;;
23119;SDS011;11729;50.836;4.330;2023-04-07T04:54:58;4.60;;;4.40;;
23119;SDS011;11729;50.836;4.330;2023-04-07T04:57:23;4.60;;;4.40;;
23119;SDS011;11729;50.836;4.330;2023-04-07T04:59:49;4.65;;;4.45;;
23119;SDS011;11729;50.836;4.330;2023-04-07T05:02:15;6.88;;;6.43;;
23119;SDS011;11729;50.836;4.330;2023-04-07T05:04:41;4.55;;;4.35;;
23119;SDS011;11729;50.836;4.330;2023-04-07T05:07:06;7.70;;;6.05;;
23119;SDS011;11729;50.836;4.330;2023-04-07T05:09:32;4.82;;;4.63;;
23119;SDS011;11729;50.836;4.330;2023-04-07T05:11:57;5.57;;;5.28;;
23119;SDS011;11729;50.836;4.330;2023-04-07T05:14:24;4.70;;;4.50;;
23119;SDS011;11729;50.836;4.330;2023-04-07T05:16:50;4.50;;;4.30;;
23119;SDS011;11729;50.836;4.330;2023-04-07T05:19:17;4.60;;;4.40;;
23119;SDS011;11729;50.836;4.330;2023-04-07T05:21:43;5.85;;;5.55;;
23119;SDS011;11729;50.836;4.330;2023-04-07T05:24:08;4.50;;;4.30;;
23119;SDS011;11729;50.836;4.330;2023-04-07T05:26:34;4.63;;;4.43;;
23119;SDS011;11729;50.836;4.330;2023-04-07T05:29:00;4.40;;;4.20;;
23119;SDS011;11729;50.836;4.330;2023-04-07T05:31:26;4.40;;;4.20;;
23119;SDS011;11729;50.836;4.330;2023-04-07T05:33:52;4.70;;;4.50;;
23119;SDS011;11729;50.836;4.330;2023-04-07T05:36:17;4.40;;;4.20;;
23119;SDS011;11729;50.836;4.330;2023-04-07T05:38:43;5.18;;;4.90;;
23119;SDS011;11729;50.836;4.330;2023-04-07T05:41:09;4.93;;;4.70;;
23119;SDS011;11729;50.836;4.330;2023-04-07T05:43:36;4.50;;;4.30;;
23119;SDS011;11729;50.836;4.330;2023-04-07T05:46:01;4.60;;;4.40;;
23119;SDS011;11729;50.836;4.330;2023-04-07T05:48:27;4.55;;;4.35;;
23119;SDS011;11729;50.836;4.330;2023-04-07T05:50:52;4.40;;;4.20;;
23119;SDS011;11729;50.836;4.330;2023-04-07T05:53:18;4.50;;;4.30;;
23119;SDS011;11729;50.836;4.330;2023-04-07T05:55:44;4.85;;;4.65;;
23119;SDS011;11729;50.836;4.330;2023-04-07T05:58:09;4.40;;;4.20;;
23119;SDS011;11729;50.836;4.330;2023-04-07T06:00:36;7.82;;;7.32;;
23119;SDS011;11729;50.836;4.330;2023-04-07T06:03:02;5.03;;;4.82;;
23119;SDS011;11729;50.836;4.330;2023-04-07T06:05:27;4.50;;;4.30;;
23119;SDS011;11729;50.836;4.330;2023-04-07T06:07:53;6.57;;;6.25;;
23119;SDS011;11729;50.836;4.330;2023-04-07T06:10:18;4.50;;;4.30;;
23119;SDS011;11729;50.836;4.330;2023-04-07T06:12:44;4.57;;;4.38;;
23119;SDS011;11729;50.836;4.330;2023-04-07T06:15:10;4.47;;;4.28;;
23119;SDS011;11729;50.836;4.330;2023-04-07T06:17:36;4.70;;;4.50;;
23119;SDS011;11729;50.836;4.330;2023-04-07T06:20:01;4.57;;;4.38;;
23119;SDS011;11729;50.836;4.330;2023-04-07T06:22:27;4.82;;;4.63;;
23119;SDS011;11729;50.836;4.330;2023-04-07T06:24:53;4.60;;;4.40;;
23119;SDS011;11729;50.836;4.330;2023-04-07T06:27:18;4.75;;;4.50;;
23119;SDS011;11729;50.836;4.330;2023-04-07T06:29:45;5.00;;;4.80;;
23119;SDS011;11729;50.836;4.330;2023-04-07T06:32:11;4.30;;;4.10;;
23119;SDS011;11729;50.836;4.330;2023-04-07T06:34:36;4.40;;;4.20;;
23119;SDS011;11729;50.836;4.330;2023-04-07T06:37:02;5.03;;;4.72;;
23119;SDS011;11729;50.836;4.330;2023-04-07T06:39:29;4.57;;;4.38;;
23119;SDS011;11729;50.836;4.330;2023-04-07T06:41:55;4.15;;;3.95;;
23119;SDS011;11729;50.836;4.330;2023-04-07T06:44:21;4.30;;;4.10;;
23119;SDS011;11729;50.836;4.330;2023-04-07T06:46:46;5.18;;;4.80;;
23119;SDS011;11729;50.836;4.330;2023-04-07T06:49:14;4.30;;;4.10;;
23119;SDS011;11729;50.836;4.330;2023-04-07T06:51:40;4.22;;;4.03;;
23119;SDS011;11729;50.836;4.330;2023-04-07T06:54:06;25.00;;;14.15;;
23119;SDS011;11729;50.836;4.330;2023-04-07T06:56:36;40.40;;;22.88;;
23119;SDS011;11729;50.836;4.330;2023-04-07T06:59:02;38.95;;;22.80;;
23119;SDS011;11729;50.836;4.330;2023-04-07T07:01:29;39.15;;;22.45;;
23119;SDS011;11729;50.836;4.330;2023-04-07T07:03:55;39.03;;;22.52;;
23119;SDS011;11729;50.836;4.330;2023-04-07T07:06:20;41.42;;;21.85;;
23119;SDS011;11729;50.836;4.330;2023-04-07T07:08:46;38.33;;;22.52;;
23119;SDS011;11729;50.836;4.330;2023-04-07T07:11:11;34.97;;;22.45;;
23119;SDS011;11729;50.836;4.330;2023-04-07T07:13:37;33.75;;;23.48;;
23119;SDS011;11729;50.836;4.330;2023-04-07T07:16:02;38.80;;;23.95;;
23119;SDS011;11729;50.836;4.330;2023-04-07T07:18:28;34.25;;;22.90;;
23119;SDS011;11729;50.836;4.330;2023-04-07T07:20:54;38.20;;;23.05;;
23119;SDS011;11729;50.836;4.330;2023-04-07T07:23:19;36.63;;;22.95;;
23119;SDS011;11729;50.836;4.330;2023-04-07T07:25:45;32.20;;;21.73;;
23119;SDS011;11729;50.836;4.330;2023-04-07T07:28:11;33.30;;;21.38;;
23119;SDS011;11729;50.836;4.330;2023-04-07T07:30:37;33.20;;;20.83;;
23119;SDS011;11729;50.836;4.330;2023-04-07T07:33:05;24.10;;;16.73;;
23119;SDS011;11729;50.836;4.330;2023-04-07T07:35:30;27.77;;;18.25;;
23119;SDS011;11729;50.836;4.330;2023-04-07T07:37:56;22.25;;;15.60;;
23119;SDS011;11729;50.836;4.330;2023-04-07T07:40:22;23.85;;;15.13;;
23119;SDS011;11729;50.836;4.330;2023-04-07T07:42:48;21.75;;;14.77;;
23119;SDS011;11729;50.836;4.330;2023-04-07T07:45:13;22.90;;;15.35;;
23119;SDS011;11729;50.836;4.330;2023-04-07T07:47:40;20.33;;;14.18;;
23119;SDS011;11729;50.836;4.330;2023-04-07T07:50:05;20.27;;;14.98;;
23119;SDS011;11729;50.836;4.330;2023-04-07T07:52:31;50.80;;;31.02;;
23119;SDS011;11729;50.836;4.330;2023-04-07T07:54:57;27.10;;;14.07;;
23119;SDS011;11729;50.836;4.330;2023-04-07T07:57:23;22.58;;;14.40;;
23119;SDS011;11729;50.836;4.330;2023-04-07T07:59:48;22.48;;;14.88;;
23119;SDS011;11729;50.836;4.330;2023-04-07T08:02:14;18.05;;;14.43;;
23119;SDS011;11729;50.836;4.330;2023-04-07T08:04:39;24.52;;;15.32;;
23119;SDS011;11729;50.836;4.330;2023-04-07T08:07:05;23.63;;;15.10;;
23119;SDS011;11729;50.836;4.330;2023-04-07T08:09:31;33.28;;;15.73;;
23119;SDS011;11729;50.836;4.330;2023-04-07T08:11:57;24.15;;;15.43;;
23119;SDS011;11729;50.836;4.330;2023-04-07T08:14:24;71.57;;;49.45;;
23119;SDS011;11729;50.836;4.330;2023-04-07T08:16:51;21.90;;;13.25;;
23119;SDS011;11729;50.836;4.330;2023-04-07T08:19:18;15.55;;;11.68;;
23119;SDS011;11729;50.836;4.330;2023-04-07T08:21:43;14.98;;;11.25;;
23119;SDS011;11729;50.836;4.330;2023-04-07T08:24:10;17.83;;;11.00;;
23119;SDS011;11729;50.836;4.330;2023-04-07T08:26:36;21.00;;;11.02;;
23119;SDS011;11729;50.836;4.330;2023-04-07T08:29:01;16.50;;;10.82;;
23119;SDS011;11729;50.836;4.330;2023-04-07T08:31:27;21.83;;;11.00;;
23119;SDS011;11729;50.836;4.330;2023-04-07T08:33:53;20.20;;;11.35;;
23119;SDS011;11729;50.836;4.330;2023-04-07T08:36:22;17.00;;;11.13;;
23119;SDS011;11729;50.836;4.330;2023-04-07T08:38:51;19.77;;;10.90;;
23119;SDS011;11729;50.836;4.330;2023-04-07T08:41:19;17.38;;;10.30;;
23119;SDS011;11729;50.836;4.330;2023-04-07T08:43:53;13.93;;;10.60;;
23119;SDS011;11729;50.836;4.330;2023-04-07T08:46:21;13.88;;;10.35;;
23119;SDS011;11729;50.836;4.330;2023-04-07T08:48:50;19.77;;;10.05;;
23119;SDS011;11729;50.836;4.330;2023-04-07T08:51:17;11.70;;;10.50;;
23119;SDS011;11729;50.836;4.330;2023-04-07T08:53:53;13.15;;;10.80;;
23119;SDS011;11729;50.836;4.330;2023-04-07T08:56:40;10.77;;;9.43;;
23119;SDS011;11729;50.836;4.330;2023-04-07T08:59:07;11.65;;;10.05;;
23119;SDS011;11729;50.836;4.330;2023-04-07T09:01:34;17.58;;;10.50;;
23119;SDS011;11729;50.836;4.330;2023-04-07T09:04:01;14.57;;;9.85;;
23119;SDS011;11729;50.836;4.330;2023-04-07T09:06:29;23.48;;;18.23;;
23119;SDS011;11729;50.836;4.330;2023-04-07T09:08:59;14.85;;;8.70;;
23119;SDS011;11729;50.836;4.330;2023-04-07T09:11:25;14.25;;;8.27;;
23119;SDS011;11729;50.836;4.330;2023-04-07T09:13:52;11.93;;;7.65;;
23119;SDS011;11729;50.836;4.330;2023-04-07T09:16:18;11.43;;;6.93;;
23119;SDS011;11729;50.836;4.330;2023-04-07T09:18:44;9.05;;;6.40;;
23119;SDS011;11729;50.836;4.330;2023-04-07T09:21:10;8.43;;;6.45;;
23119;SDS011;11729;50.836;4.330;2023-04-07T09:23:37;8.07;;;6.07;;
23119;SDS011;11729;50.836;4.330;2023-04-07T09:26:22;11.88;;;6.90;;
23119;SDS011;11729;50.836;4.330;2023-04-07T09:28:59;6.22;;;5.30;;
23119;SDS011;11729;50.836;4.330;2023-04-07T09:31:46;5.50;;;5.00;;
23119;SDS011;11729;50.836;4.330;2023-04-07T09:34:22;6.88;;;5.03;;
23119;SDS011;11729;50.836;4.330;2023-04-07T09:36:52;4.82;;;4.43;;
23119;SDS011;11729;50.836;4.330;2023-04-07T09:39:18;8.43;;;5.00;;
23119;SDS011;11729;50.836;4.330;2023-04-07T09:41:44;8.15;;;5.35;;
23119;SDS011;11729;50.836;4.330;2023-04-07T09:44:10;5.80;;;5.30;;
23119;SDS011;11729;50.836;4.330;2023-04-07T09:46:46;6.97;;;5.00;;
23119;SDS011;11729;50.836;4.330;2023-04-07T09:49:16;5.72;;;5.18;;
23119;SDS011;11729;50.836;4.330;2023-04-07T09:57:21;6.25;;;5.05;;
23119;SDS011;11729;50.836;4.330;2023-04-07T09:59:48;6.05;;;5.22;;
23119;SDS011;11729;50.836;4.330;2023-04-07T10:02:15;13.45;;;5.53;;
23119;SDS011;11729;50.836;4.330;2023-04-07T10:04:42;11.32;;;4.63;;
23119;SDS011;11729;50.836;4.330;2023-04-07T10:07:08;6.32;;;5.05;;
23119;SDS011;11729;50.836;4.330;2023-04-07T10:09:34;6.22;;;4.95;;
23119;SDS011;11729;50.836;4.330;2023-04-07T10:12:00;6.75;;;5.22;;
23119;SDS011;11729;50.836;4.330;2023-04-07T10:14:30;5.80;;;5.13;;
23119;SDS011;11729;50.836;4.330;2023-04-07T10:16:56;5.00;;;4.43;;
23119;SDS011;11729;50.836;4.330;2023-04-07T10:19:24;7.80;;;4.65;;
23119;SDS011;11729;50.836;4.330;2023-04-07T10:21:53;6.47;;;4.43;;
23119;SDS011;11729;50.836;4.330;2023-04-07T10:25:03;6.93;;;4.60;;
23119;SDS011;11729;50.836;4.330;2023-04-07T10:27:44;7.47;;;5.82;;
23119;SDS011;11729;50.836;4.330;2023-04-07T10:30:17;10.80;;;6.20;;
23119;SDS011;11729;50.836;4.330;2023-04-07T10:32:48;7.47;;;6.43;;
23119;SDS011;11729;50.836;4.330;2023-04-07T10:35:14;8.98;;;6.78;;
23119;SDS011;11729;50.836;4.330;2023-04-07T10:37:42;10.73;;;6.90;;
23119;SDS011;11729;50.836;4.330;2023-04-07T10:40:34;10.35;;;6.50;;
23119;SDS011;11729;50.836;4.330;2023-04-07T10:43:02;8.95;;;6.20;;
23119;SDS011;11729;50.836;4.330;2023-04-07T10:48:13;12.55;;;7.18;;
23119;SDS011;11729;50.836;4.330;2023-04-07T10:50:39;9.30;;;7.00;;
23119;SDS011;11729;50.836;4.330;2023-04-07T10:53:08;8.15;;;6.13;;
23119;SDS011;11729;50.836;4.330;2023-04-07T10:55:42;8.43;;;6.28;;
23119;SDS011;11729;50.836;4.330;2023-04-07T10:58:19;14.90;;;6.32;;
23119;SDS011;11729;50.836;4.330;2023-04-07T11:03:24;13.27;;;6.30;;
23119;SDS011;11729;50.836;4.330;2023-04-07T11:05:51;11.15;;;6.28;;
23119;SDS011;11729;50.836;4.330;2023-04-07T11:08:36;12.55;;;6.50;;
23119;SDS011;11729;50.836;4.330;2023-04-07T11:11:04;9.98;;;6.20;;
23119;SDS011;11729;50.836;4.330;2023-04-07T11:16:06;12.15;;;6.55;;
23119;SDS011;11729;50.836;4.330;2023-04-07T11:18:32;16.05;;;7.18;;
23119;SDS011;11729;50.836;4.330;2023-04-07T11:21:02;11.00;;;6.13;;
23119;SDS011;11729;50.836;4.330;2023-04-07T11:23:37;10.07;;;6.18;;
23119;SDS011;11729;50.836;4.330;2023-04-07T11:26:03;9.32;;;6.20;;
23119;SDS011;11729;50.836;4.330;2023-04-07T11:28:29;13.35;;;6.38;;
23119;SDS011;11729;50.836;4.330;2023-04-07T11:30:55;11.27;;;6.50;;
23119;SDS011;11729;50.836;4.330;2023-04-07T11:33:25;13.35;;;6.40;;
23119;SDS011;11729;50.836;4.330;2023-04-07T11:35:54;10.38;;;6.63;;
23119;SDS011;11729;50.836;4.330;2023-04-07T11:38:26;10.90;;;6.90;;
23119;SDS011;11729;50.836;4.330;2023-04-07T11:41:40;12.63;;;6.83;;
23119;SDS011;11729;50.836;4.330;2023-04-07T11:44:03;15.43;;;8.32;;
23119;SDS011;11729;50.836;4.330;2023-04-07T11:46:36;13.73;;;8.38;;
23119;SDS011;11729;50.836;4.330;2023-04-07T11:49:21;14.43;;;7.70;;
23119;SDS011;11729;50.836;4.330;2023-04-07T11:51:47;12.80;;;8.23;;
23119;SDS011;11729;50.836;4.330;2023-04-07T11:54:21;13.60;;;8.70;;
23119;SDS011;11729;50.836;4.330;2023-04-07T11:56:46;13.13;;;7.90;;
23119;SDS011;11729;50.836;4.330;2023-04-07T11:59:22;17.52;;;8.05;;
23119;SDS011;11729;50.836;4.330;2023-04-07T12:01:50;13.60;;;8.35;;
23119;SDS011;11729;50.836;4.330;2023-04-07T12:04:16;17.90;;;8.50;;
23119;SDS011;11729;50.836;4.330;2023-04-07T12:06:43;14.82;;;8.40;;
23119;SDS011;11729;50.836;4.330;2023-04-07T12:09:32;12.35;;;7.82;;
23119;SDS011;11729;50.836;4.330;2023-04-07T12:12:02;18.30;;;8.18;;
23119;SDS011;11729;50.836;4.330;2023-04-07T12:14:32;10.98;;;7.43;;
23119;SDS011;11729;50.836;4.330;2023-04-07T12:16:58;10.73;;;6.95;;
23119;SDS011;11729;50.836;4.330;2023-04-07T12:19:27;11.65;;;6.70;;
23119;SDS011;11729;50.836;4.330;2023-04-07T12:21:54;11.77;;;7.13;;
23119;SDS011;11729;50.836;4.330;2023-04-07T12:24:20;9.82;;;7.00;;
23119;SDS011;11729;50.836;4.330;2023-04-07T12:26:47;11.45;;;7.13;;
23119;SDS011;11729;50.836;4.330;2023-04-07T12:29:13;15.63;;;7.05;;
23119;SDS011;11729;50.836;4.330;2023-04-07T12:31:41;13.65;;;7.38;;
23119;SDS011;11729;50.836;4.330;2023-04-07T12:34:07;14.05;;;7.32;;
23119;SDS011;11729;50.836;4.330;2023-04-07T12:36:34;13.02;;;8.23;;
23119;SDS011;11729;50.836;4.330;2023-04-07T12:39:00;9.32;;;7.00;;
23119;SDS011;11729;50.836;4.330;2023-04-07T12:41:26;11.15;;;6.90;;
23119;SDS011;11729;50.836;4.330;2023-04-07T12:43:52;13.50;;;7.32;;
23119;SDS011;11729;50.836;4.330;2023-04-07T12:46:17;13.88;;;7.43;;
23119;SDS011;11729;50.836;4.330;2023-04-07T12:48:43;11.80;;;7.45;;
23119;SDS011;11729;50.836;4.330;2023-04-07T12:51:09;10.32;;;7.53;;
23119;SDS011;11729;50.836;4.330;2023-04-07T12:53:41;16.38;;;8.02;;
23119;SDS011;11729;50.836;4.330;2023-04-07T12:56:07;14.52;;;8.15;;
23119;SDS011;11729;50.836;4.330;2023-04-07T12:58:32;15.05;;;8.32;;
23119;SDS011;11729;50.836;4.330;2023-04-07T13:00:58;11.40;;;7.25;;
23119;SDS011;11729;50.836;4.330;2023-04-07T13:03:24;11.50;;;7.40;;
23119;SDS011;11729;50.836;4.330;2023-04-07T13:05:50;11.77;;;6.82;;
23119;SDS011;11729;50.836;4.330;2023-04-07T13:08:18;12.25;;;7.43;;
23119;SDS011;11729;50.836;4.330;2023-04-07T13:10:43;10.20;;;6.88;;
23119;SDS011;11729;50.836;4.330;2023-04-07T13:13:09;9.90;;;7.57;;
23119;SDS011;11729;50.836;4.330;2023-04-07T13:15:35;13.30;;;7.90;;
23119;SDS011;11729;50.836;4.330;2023-04-07T13:18:00;15.85;;;7.88;;
23119;SDS011;11729;50.836;4.330;2023-04-07T13:20:27;11.40;;;7.32;;
23119;SDS011;11729;50.836;4.330;2023-04-07T13:22:54;10.80;;;7.78;;
23119;SDS011;11729;50.836;4.330;2023-04-07T13:25:19;9.90;;;6.80;;
23119;SDS011;11729;50.836;4.330;2023-04-07T13:27:45;10.65;;;6.72;;
23119;SDS011;11729;50.836;4.330;2023-04-07T13:30:11;10.40;;;6.43;;
23119;SDS011;11729;50.836;4.330;2023-04-07T13:32:38;7.50;;;6.10;;
23119;SDS011;11729;50.836;4.330;2023-04-07T13:35:03;9.93;;;5.60;;
23119;SDS011;11729;50.836;4.330;2023-04-07T13:37:30;8.23;;;5.88;;
23119;SDS011;11729;50.836;4.330;2023-04-07T13:39:55;12.63;;;5.75;;
23119;SDS011;11729;50.836;4.330;2023-04-07T13:42:21;10.07;;;5.78;;
23119;SDS011;11729;50.836;4.330;2023-04-07T13:44:49;13.43;;;5.38;;
23119;SDS011;11729;50.836;4.330;2023-04-07T13:47:15;8.93;;;6.15;;
23119;SDS011;11729;50.836;4.330;2023-04-07T13:49:47;12.15;;;6.13;;
23119;SDS011;11729;50.836;4.330;2023-04-07T13:52:13;10.05;;;6.05;;
23119;SDS011;11729;50.836;4.330;2023-04-07T13:54:40;12.18;;;6.15;;
23119;SDS011;11729;50.836;4.330;2023-04-07T13:57:05;7.97;;;6.05;;
23119;SDS011;11729;50.836;4.330;2023-04-07T13:59:32;9.48;;;6.00;;
23119;SDS011;11729;50.836;4.330;2023-04-07T14:01:57;11.57;;;6.20;;
23119;SDS011;11729;50.836;4.330;2023-04-07T14:04:23;13.18;;;6.22;;
23119;SDS011;11729;50.836;4.330;2023-04-07T14:06:49;10.25;;;6.63;;
23119;SDS011;11729;50.836;4.330;2023-04-07T14:09:14;11.43;;;6.47;;
23119;SDS011;11729;50.836;4.330;2023-04-07T14:11:41;10.93;;;6.63;;
23119;SDS011;11729;50.836;4.330;2023-04-07T14:14:06;10.02;;;6.32;;
23119;SDS011;11729;50.836;4.330;2023-04-07T14:16:32;12.70;;;6.28;;
23119;SDS011;11729;50.836;4.330;2023-04-07T14:18:57;16.08;;;6.75;;
23119;SDS011;11729;50.836;4.330;2023-04-07T14:21:23;11.77;;;7.10;;
23119;SDS011;11729;50.836;4.330;2023-04-07T14:23:51;13.13;;;7.65;;
23119;SDS011;11729;50.836;4.330;2023-04-07T14:26:17;12.88;;;7.65;;
23119;SDS011;11729;50.836;4.330;2023-04-07T14:28:42;18.23;;;7.65;;
23119;SDS011;11729;50.836;4.330;2023-04-07T14:31:12;11.43;;;7.50;;
23119;SDS011;11729;50.836;4.330;2023-04-07T14:33:39;12.50;;;8.00;;
23119;SDS011;11729;50.836;4.330;2023-04-07T14:36:05;11.73;;;7.47;;
23119;SDS011;11729;50.836;4.330;2023-04-07T14:38:31;12.95;;;7.53;;
23119;SDS011;11729;50.836;4.330;2023-04-07T14:40:57;12.00;;;7.40;;
23119;SDS011;11729;50.836;4.330;2023-04-07T14:43:24;11.70;;;7.45;;
23119;SDS011;11729;50.836;4.330;2023-04-07T14:45:49;17.15;;;8.35;;
23119;SDS011;11729;50.836;4.330;2023-04-07T14:48:18;12.50;;;7.47;;
23119;SDS011;11729;50.836;4.330;2023-04-07T14:50:43;8.85;;;7.30;;
23119;SDS011;11729;50.836;4.330;2023-04-07T14:53:09;8.13;;;6.10;;
23119;SDS011;11729;50.836;4.330;2023-04-07T14:55:35;8.43;;;5.47;;
23119;SDS011;11729;50.836;4.330;2023-04-07T14:58:01;7.97;;;6.05;;
23119;SDS011;11729;50.836;4.330;2023-04-07T15:00:26;13.27;;;7.80;;
23119;SDS011;11729;50.836;4.330;2023-04-07T15:02:53;7.90;;;6.25;;
23119;SDS011;11729;50.836;4.330;2023-04-07T15:05:19;7.40;;;5.50;;
23119;SDS011;11729;50.836;4.330;2023-04-07T15:07:47;7.40;;;5.30;;